sensor_id;sensor_type;location;lat;lon;timestamp;pressure;altitude;pressure_sealevel;temperature;humidity
42105;BME280;68365;51.472;5.712;2023-05-29T00:00:21;102019.19;;;19.94;100.00
42105;BME280;68365;51.472;5.712;2023-05-29T00:02:50;102029.91;;;19.92;100.00
42105;BME280;68365;51.472;5.712;2023-05-29T00:05:17;102033.00;;;19.96;100.00
42105;BME280;68365;51.472;5.712;2023-05-29T00:07:43;102038.63;;;19.93;100.00
42105;BME280;68365;51.472;5.712;2023-05-29T00:10:11;102042.91;;;19.94;100.00
42105;BME280;68365;51.472;5.712;2023-05-29T00:12:38;102042.06;;;19.93;100.00
42105;BME280;68365;51.472;5.712;2023-05-29T00:15:05;102041.09;;;19.94;100.00
42105;BME280;68365;51.472;5.712;2023-05-29T00:17:32;102041.44;;;19.91;100.00
42105;BME280;68365;51.472;5.712;2023-05-29T00:19:59;102036.38;;;19.89;100.00
42105;BME280;68365;51.472;5.712;2023-05-29T00:22:27;102040.47;;;19.92;100.00
42105;BME280;68365;51.472;5.712;2023-05-29T00:24:53;102046.97;;;19.96;100.00
42105;BME280;68365;51.472;5.712;2023-05-29T00:27:19;102049.16;;;19.93;100.00
42105;BME280;68365;51.472;5.712;2023-05-29T00:29:46;102044.72;;;19.93;100.00
42105;BME280;68365;51.472;5.712;2023-05-29T00:32:12;102056.09;;;19.94;100.00
42105;BME280;68365;51.472;5.712;2023-05-29T00:34:37;102051.19;;;19.90;100.00
42105;BME280;68365;51.472;5.712;2023-05-29T00:37:04;102048.38;;;19.92;100.00
42105;BME280;68365;51.472;5.712;2023-05-29T00:39:29;102056.44;;;19.90;100.00
42105;BME280;68365;51.472;5.712;2023-05-29T00:41:58;102058.47;;;19.88;100.00
42105;BME280;68365;51.472;5.712;2023-05-29T00:44:24;102061.84;;;19.82;100.00
42105;BME280;68365;51.472;5.712;2023-05-29T00:46:52;102070.56;;;19.83;100.00
42105;BME280;68365;51.472;5.712;2023-05-29T00:49:20;102071.81;;;19.87;100.00
42105;BME280;68365;51.472;5.712;2023-05-29T00:51:48;102057.59;;;19.81;100.00
42105;BME280;68365;51.472;5.712;2023-05-29T00:54:25;102069.75;;;19.82;100.00
42105;BME280;68365;51.472;5.712;2023-05-29T00:56:52;102072.38;;;19.82;100.00
42105;BME280;68365;51.472;5.712;2023-05-29T00:59:19;102072.38;;;19.82;100.00
42105;BME280;68365;51.472;5.712;2023-05-29T01:01:49;102069.38;;;19.85;100.00
42105;BME280;68365;51.472;5.712;2023-05-29T01:04:16;102082.91;;;19.82;100.00
42105;BME280;68365;51.472;5.712;2023-05-29T01:06:43;102080.69;;;19.79;100.00
42105;BME280;68365;51.472;5.712;2023-05-29T01:09:10;102079.47;;;19.82;100.00
42105;BME280;68365;51.472;5.712;2023-05-29T01:12:14;102082.91;;;19.82;100.00
42105;BME280;68365;51.472;5.712;2023-05-29T01:21:03;102091.22;;;19.79;100.00
42105;BME280;68365;51.472;5.712;2023-05-29T01:27:04;102087.13;;;19.77;100.00
42105;BME280;68365;51.472;5.712;2023-05-29T01:29:34;102095.03;;;19.77;100.00
42105;BME280;68365;51.472;5.712;2023-05-29T01:32:01;102093.63;;;19.81;100.00
42105;BME280;68365;51.472;5.712;2023-05-29T01:34:28;102088.13;;;19.76;100.00
42105;BME280;68365;51.472;5.712;2023-05-29T01:36:54;102093.22;;;19.77;100.00
42105;BME280;68365;51.472;5.712;2023-05-29T01:39:20;102091.13;;;19.73;100.00
42105;BME280;68365;51.472;5.712;2023-05-29T01:41:47;102086.47;;;19.75;100.00
42105;BME280;68365;51.472;5.712;2023-05-29T01:44:14;102097.84;;;19.75;100.00
42105;BME280;68365;51.472;5.712;2023-05-29T01:46:44;102092.16;;;19.72;100.00
42105;BME280;68365;51.472;5.712;2023-05-29T01:49:11;102090.94;;;19.74;100.00
42105;BME280;68365;51.472;5.712;2023-05-29T01:51:41;102096.22;;;19.74;100.00
42105;BME280;68365;51.472;5.712;2023-05-29T01:54:07;102093.13;;;19.70;100.00
42105;BME280;68365;51.472;5.712;2023-05-29T01:56:33;102091.75;;;19.75;100.00
42105;BME280;68365;51.472;5.712;2023-05-29T01:59:02;102096.31;;;19.66;100.00
42105;BME280;68365;51.472;5.712;2023-05-29T02:01:29;102092.69;;;19.67;100.00
42105;BME280;68365;51.472;5.712;2023-05-29T02:03:56;102095.94;;;19.69;100.00
42105;BME280;68365;51.472;5.712;2023-05-29T02:06:22;102104.19;;;19.66;100.00
42105;BME280;68365;51.472;5.712;2023-05-29T02:08:48;102097.72;;;19.68;100.00
42105;BME280;68365;51.472;5.712;2023-05-29T02:11:14;102095.50;;;19.65;100.00
42105;BME280;68365;51.472;5.712;2023-05-29T02:13:41;102096.94;;;19.68;100.00
42105;BME280;68365;51.472;5.712;2023-05-29T02:16:07;102096.31;;;19.66;100.00
42105;BME280;68365;51.472;5.712;2023-05-29T02:18:33;102100.13;;;19.63;100.00
42105;BME280;68365;51.472;5.712;2023-05-29T02:21:00;102090.59;;;19.62;100.00
42105;BME280;68365;51.472;5.712;2023-05-29T02:23:26;102093.22;;;19.62;100.00
42105;BME280;68365;51.472;5.712;2023-05-29T02:25:52;102097.84;;;19.60;100.00
42105;BME280;68365;51.472;5.712;2023-05-29T02:28:17;102103.97;;;19.61;100.00
42105;BME280;68365;51.472;5.712;2023-05-29T02:30:43;102103.75;;;19.62;100.00
42105;BME280;68365;51.472;5.712;2023-05-29T02:33:09;102103.13;;;19.60;100.00
42105;BME280;68365;51.472;5.712;2023-05-29T02:35:35;102093.94;;;19.56;100.00
42105;BME280;68365;51.472;5.712;2023-05-29T02:38:01;102101.50;;;19.59;100.00
42105;BME280;68365;51.472;5.712;2023-05-29T02:40:26;102104.75;;;19.61;100.00
42105;BME280;68365;51.472;5.712;2023-05-29T02:42:52;102109.41;;;19.59;100.00
42105;BME280;68365;51.472;5.712;2023-05-29T02:45:19;102116.66;;;19.57;100.00
42105;BME280;68365;51.472;5.712;2023-05-29T02:47:45;102120.50;;;19.55;100.00
42105;BME280;68365;51.472;5.712;2023-05-29T02:50:10;102114.50;;;19.61;100.00
42105;BME280;68365;51.472;5.712;2023-05-29T02:52:36;102119.03;;;19.52;100.00
42105;BME280;68365;51.472;5.712;2023-05-29T02:55:06;102122.13;;;19.56;100.00
42105;BME280;68365;51.472;5.712;2023-05-29T02:57:32;102119.66;;;19.54;100.00
42105;BME280;68365;51.472;5.712;2023-05-29T02:59:58;102123.75;;;19.57;100.00
42105;BME280;68365;51.472;5.712;2023-05-29T03:02:24;102125.13;;;19.53;100.00
42105;BME280;68365;51.472;5.712;2023-05-29T03:04:50;102120.03;;;19.51;100.00
42105;BME280;68365;51.472;5.712;2023-05-29T03:07:16;102125.50;;;19.49;100.00
42105;BME280;68365;51.472;5.712;2023-05-29T03:09:42;102118.41;;;19.50;100.00
42105;BME280;68365;51.472;5.712;2023-05-29T03:12:08;102123.88;;;19.48;100.00
42105;BME280;68365;51.472;5.712;2023-05-29T03:14:34;102119.78;;;19.46;100.00
42105;BME280;68365;51.472;5.712;2023-05-29T03:17:04;102125.03;;;19.46;100.00
42105;BME280;68365;51.472;5.712;2023-05-29T03:19:31;102125.03;;;19.46;100.00
42105;BME280;68365;51.472;5.712;2023-05-29T03:21:57;102121.41;;;19.47;100.00
42105;BME280;68365;51.472;5.712;2023-05-29T03:24:22;102120.16;;;19.43;100.00
42105;BME280;68365;51.472;5.712;2023-05-29T03:26:51;102127.25;;;19.42;100.00
42105;BME280;68365;51.472;5.712;2023-05-29T03:29:17;102125.25;;;19.44;100.00
42105;BME280;68365;51.472;5.712;2023-05-29T03:31:43;102133.94;;;19.45;100.00
42105;BME280;68365;51.472;5.712;2023-05-29T03:34:09;102125.88;;;19.46;100.00
42105;BME280;68365;51.472;5.712;2023-05-29T03:36:35;102130.84;;;19.41;100.00
42105;BME280;68365;51.472;5.712;2023-05-29T03:39:04;102129.88;;;19.42;100.00
42105;BME280;68365;51.472;5.712;2023-05-29T03:41:30;102131.03;;;19.40;100.00
42105;BME280;68365;51.472;5.712;2023-05-29T03:43:56;102130.84;;;19.41;100.00
42105;BME280;68365;51.472;5.712;2023-05-29T03:46:22;102130.69;;;19.43;100.00
42105;BME280;68365;51.472;5.712;2023-05-29T03:48:48;102133.66;;;19.40;100.00
42105;BME280;68365;51.472;5.712;2023-05-29T03:51:14;102142.75;;;19.37;100.00
42105;BME280;68365;51.472;5.712;2023-05-29T03:53:39;102146.41;;;19.36;100.00
42105;BME280;68365;51.472;5.712;2023-05-29T03:56:05;102143.41;;;19.39;100.00
42105;BME280;68365;51.472;5.712;2023-05-29T03:58:31;102142.13;;;19.35;100.00
42105;BME280;68365;51.472;5.712;2023-05-29T04:00:57;102147.22;;;19.37;100.00
42105;BME280;68365;51.472;5.712;2023-05-29T04:03:23;102143.56;;;19.38;100.00
42105;BME280;68365;51.472;5.712;2023-05-29T04:05:49;102138.03;;;19.33;100.00
42105;BME280;68365;51.472;5.712;2023-05-29T04:08:15;102154.47;;;19.35;100.00
42105;BME280;68365;51.472;5.712;2023-05-29T04:10:41;102153.47;;;19.36;100.00
42105;BME280;68365;51.472;5.712;2023-05-29T04:13:07;102160.19;;;19.38;100.00
42105;BME280;68365;51.472;5.712;2023-05-29T04:15:32;102160.94;;;19.32;100.00
42105;BME280;68365;51.472;5.712;2023-05-29T04:17:59;102162.00;;;19.38;100.00
42105;BME280;68365;51.472;5.712;2023-05-29T04:20:25;102151.22;;;19.33;100.00
42105;BME280;68365;51.472;5.712;2023-05-29T04:22:51;102159.28;;;19.31;100.00
42105;BME280;68365;51.472;5.712;2023-05-29T04:25:17;102160.09;;;19.32;100.00
42105;BME280;68365;51.472;5.712;2023-05-29T04:27:46;102156.47;;;19.33;100.00
42105;BME280;68365;51.472;5.712;2023-05-29T04:30:16;102169.63;;;19.33;100.00
42105;BME280;68365;51.472;5.712;2023-05-29T04:32:42;102169.81;;;19.31;100.00
42105;BME280;68365;51.472;5.712;2023-05-29T04:35:08;102158.31;;;19.32;100.00
42105;BME280;68365;51.472;5.712;2023-05-29T04:37:35;102157.84;;;19.28;100.00
42105;BME280;68365;51.472;5.712;2023-05-29T04:40:06;102166.28;;;19.39;100.00
42105;BME280;68365;51.472;5.712;2023-05-29T04:42:39;102171.53;;;19.39;100.00
42105;BME280;68365;51.472;5.712;2023-05-29T04:45:07;102178.25;;;19.41;100.00
42105;BME280;68365;51.472;5.712;2023-05-29T04:47:36;102172.53;;;19.38;100.00
42105;BME280;68365;51.472;5.712;2023-05-29T04:50:12;102173.53;;;19.37;100.00
42105;BME280;68365;51.472;5.712;2023-05-29T04:52:38;102174.00;;;19.40;100.00
42105;BME280;68365;51.472;5.712;2023-05-29T04:55:05;102166.75;;;19.42;100.00
42105;BME280;68365;51.472;5.712;2023-05-29T04:57:31;102179.28;;;19.40;100.00
42105;BME280;68365;51.472;5.712;2023-05-29T04:59:57;102182.88;;;19.39;100.00
42105;BME280;68365;51.472;5.712;2023-05-29T05:02:22;102177.44;;;19.41;100.00
42105;BME280;68365;51.472;5.712;2023-05-29T05:04:48;102176.88;;;19.45;100.00
42105;BME280;68365;51.472;5.712;2023-05-29T05:07:15;102176.53;;;19.48;100.00
42105;BME280;68365;51.472;5.712;2023-05-29T05:09:42;102174.34;;;19.52;100.00
42105;BME280;68365;51.472;5.712;2023-05-29T05:12:08;102179.25;;;19.55;100.00
42105;BME280;68365;51.472;5.712;2023-05-29T05:14:34;102182.22;;;19.52;100.00
42105;BME280;68365;51.472;5.712;2023-05-29T05:17:00;102185.44;;;19.47;100.00
42105;BME280;68365;51.472;5.712;2023-05-29T05:19:26;102190.50;;;19.49;100.00
42105;BME280;68365;51.472;5.712;2023-05-29T05:21:52;102179.97;;;19.49;100.00
42105;BME280;68365;51.472;5.712;2023-05-29T05:24:17;102186.06;;;19.49;100.00
42105;BME280;68365;51.472;5.712;2023-05-29T05:26:43;102185.25;;;19.49;100.00
42105;BME280;68365;51.472;5.712;2023-05-29T05:29:09;102180.63;;;19.51;100.00
42105;BME280;68365;51.472;5.712;2023-05-29T05:31:35;102190.13;;;19.52;100.00
42105;BME280;68365;51.472;5.712;2023-05-29T05:34:01;102197.22;;;19.52;100.00
42105;BME280;68365;51.472;5.712;2023-05-29T05:36:26;102186.06;;;19.49;100.00
42105;BME280;68365;51.472;5.712;2023-05-29T05:38:52;102193.41;;;19.54;100.00
42105;BME280;68365;51.472;5.712;2023-05-29T05:41:18;102190.78;;;19.54;100.00
42105;BME280;68365;51.472;5.712;2023-05-29T05:43:44;102199.69;;;19.53;100.00
42105;BME280;68365;51.472;5.712;2023-05-29T05:46:09;102204.78;;;19.55;100.00
42105;BME280;68365;51.472;5.712;2023-05-29T05:48:35;102193.41;;;19.54;100.00
42105;BME280;68365;51.472;5.712;2023-05-29T05:51:01;102191.78;;;19.53;100.00
42105;BME280;68365;51.472;5.712;2023-05-29T05:53:27;102191.63;;;19.55;100.00
42105;BME280;68365;51.472;5.712;2023-05-29T05:55:52;102193.06;;;19.57;100.00
42105;BME280;68365;51.472;5.712;2023-05-29T05:58:19;102187.97;;;19.56;100.00
42105;BME280;68365;51.472;5.712;2023-05-29T06:00:45;102192.88;;;19.59;100.00
42105;BME280;68365;51.472;5.712;2023-05-29T06:03:11;102185.78;;;19.59;100.00
42105;BME280;68365;51.472;5.712;2023-05-29T06:05:37;102191.41;;;19.56;100.00
42105;BME280;68365;51.472;5.712;2023-05-29T06:08:06;102194.50;;;19.60;100.00
42105;BME280;68365;51.472;5.712;2023-05-29T06:10:33;102192.66;;;19.60;100.00
42105;BME280;68365;51.472;5.712;2023-05-29T06:12:59;102193.06;;;19.57;100.00
42105;BME280;68365;51.472;5.712;2023-05-29T06:15:25;102206.69;;;19.61;100.00
42105;BME280;68365;51.472;5.712;2023-05-29T06:17:51;102206.06;;;19.59;100.00
42105;BME280;68365;51.472;5.712;2023-05-29T06:20:18;102207.66;;;19.60;100.00
42105;BME280;68365;51.472;5.712;2023-05-29T06:22:45;102212.13;;;19.59;100.00
42105;BME280;68365;51.472;5.712;2023-05-29T06:25:19;102211.09;;;19.60;100.00
42105;BME280;68365;51.472;5.712;2023-05-29T06:27:45;102211.94;;;19.61;100.00
42105;BME280;68365;51.472;5.712;2023-05-29T06:30:12;102213.56;;;19.62;100.00
42105;BME280;68365;51.472;5.712;2023-05-29T06:32:38;102215.56;;;19.60;100.00
42105;BME280;68365;51.472;5.712;2023-05-29T06:35:04;102218.66;;;19.63;100.00
42105;BME280;68365;51.472;5.712;2023-05-29T06:37:32;102214.59;;;19.61;100.00
42105;BME280;68365;51.472;5.712;2023-05-29T06:39:57;102229.19;;;19.63;100.00
42105;BME280;68365;51.472;5.712;2023-05-29T06:42:23;102230.00;;;19.64;100.00
42105;BME280;68365;51.472;5.712;2023-05-29T06:44:49;102230.00;;;19.64;100.00
42105;BME280;68365;51.472;5.712;2023-05-29T06:47:15;102228.19;;;19.64;100.00
42105;BME280;68365;51.472;5.712;2023-05-29T06:49:40;102221.28;;;19.63;100.00
42105;BME280;68365;51.472;5.712;2023-05-29T06:52:06;102231.66;;;19.65;100.00
42105;BME280;68365;51.472;5.712;2023-05-29T06:54:32;102227.38;;;19.64;100.00
42105;BME280;68365;51.472;5.712;2023-05-29T06:56:57;102223.94;;;19.63;100.00
42105;BME280;68365;51.472;5.712;2023-05-29T06:59:23;102227.38;;;19.64;100.00
42105;BME280;68365;51.472;5.712;2023-05-29T07:01:49;102224.75;;;19.64;100.00
42105;BME280;68365;51.472;5.712;2023-05-29T07:04:15;102224.75;;;19.64;100.00
42105;BME280;68365;51.472;5.712;2023-05-29T07:06:41;102222.91;;;19.64;100.00
42105;BME280;68365;51.472;5.712;2023-05-29T07:09:07;102227.19;;;19.65;100.00
42105;BME280;68365;51.472;5.712;2023-05-29T07:11:33;102228.19;;;19.64;100.00
42105;BME280;68365;51.472;5.712;2023-05-29T07:13:59;102227.38;;;19.64;100.00
42105;BME280;68365;51.472;5.712;2023-05-29T07:16:25;102229.19;;;19.63;100.00
42105;BME280;68365;51.472;5.712;2023-05-29T07:18:51;102231.03;;;19.63;100.00
42105;BME280;68365;51.472;5.712;2023-05-29T07:21:17;102237.28;;;19.62;100.00
42105;BME280;68365;51.472;5.712;2023-05-29T07:23:44;102241.56;;;19.63;100.00
42105;BME280;68365;51.472;5.712;2023-05-29T07:26:10;102237.09;;;19.63;100.00
42105;BME280;68365;51.472;5.712;2023-05-29T07:28:36;102233.84;;;19.61;100.00
42105;BME280;68365;51.472;5.712;2023-05-29T07:31:02;102231.03;;;19.63;100.00
42105;BME280;68365;51.472;5.712;2023-05-29T07:33:27;102246.81;;;19.63;100.00
42105;BME280;68365;51.472;5.712;2023-05-29T07:35:53;102237.44;;;19.60;100.00
42105;BME280;68365;51.472;5.712;2023-05-29T07:38:19;102244.53;;;19.60;100.00
42105;BME280;68365;51.472;5.712;2023-05-29T07:40:45;102240.94;;;19.61;100.00
42105;BME280;68365;51.472;5.712;2023-05-29T07:43:11;102238.47;;;19.59;100.00
42105;BME280;68365;51.472;5.712;2023-05-29T07:45:36;102234.81;;;19.60;100.00
42105;BME280;68365;51.472;5.712;2023-05-29T07:48:02;102235.66;;;19.61;100.00
42105;BME280;68365;51.472;5.712;2023-05-29T07:50:28;102239.66;;;19.57;100.00
42105;BME280;68365;51.472;5.712;2023-05-29T07:52:54;102248.34;;;19.27;93.05
42105;BME280;68365;51.472;5.712;2023-05-29T07:55:21;102250.75;;;18.99;85.74
42105;BME280;68365;51.472;5.712;2023-05-29T07:57:47;102260.88;;;18.87;84.46
42105;BME280;68365;51.472;5.712;2023-05-29T08:00:15;102257.59;;;18.85;81.99
42105;BME280;68365;51.472;5.712;2023-05-29T08:02:41;102253.53;;;18.83;79.48
42105;BME280;68365;51.472;5.712;2023-05-29T08:05:08;102256.78;;;18.85;77.84
42105;BME280;68365;51.472;5.712;2023-05-29T08:07:36;102266.59;;;18.91;76.59
42105;BME280;68365;51.472;5.712;2023-05-29T08:10:02;102261.41;;;18.83;75.77
42105;BME280;68365;51.472;5.712;2023-05-29T08:12:28;102267.81;;;18.80;74.79
42105;BME280;68365;51.472;5.712;2023-05-29T08:14:54;102257.00;;;18.75;74.00
42105;BME280;68365;51.472;5.712;2023-05-29T08:17:20;102264.38;;;18.80;73.43
42105;BME280;68365;51.472;5.712;2023-05-29T08:19:46;102273.09;;;18.80;72.14
42105;BME280;68365;51.472;5.712;2023-05-29T08:22:16;102255.16;;;18.84;72.79
42105;BME280;68365;51.472;5.712;2023-05-29T08:24:42;102260.13;;;18.79;72.26
42105;BME280;68365;51.472;5.712;2023-05-29T08:27:07;102261.34;;;18.91;73.26
42105;BME280;68365;51.472;5.712;2023-05-29T08:29:33;102254.81;;;18.87;73.01
42105;BME280;68365;51.472;5.712;2023-05-29T08:31:59;102261.69;;;18.88;72.50
42105;BME280;68365;51.472;5.712;2023-05-29T08:34:25;102272.97;;;18.97;71.83
42105;BME280;68365;51.472;5.712;2023-05-29T08:36:51;102271.41;;;18.87;70.60
42105;BME280;68365;51.472;5.712;2023-05-29T08:39:17;102262.91;;;18.77;70.11
42105;BME280;68365;51.472;5.712;2023-05-29T08:44:30;102260.97;;;18.94;70.52
42105;BME280;68365;51.472;5.712;2023-05-29T08:47:03;102268.69;;;18.96;70.67
42105;BME280;68365;51.472;5.712;2023-05-29T08:49:40;102271.34;;;18.96;70.19
42105;BME280;68365;51.472;5.712;2023-05-29T08:52:19;102260.56;;;19.05;71.08
42105;BME280;68365;51.472;5.712;2023-05-29T08:54:45;102282.13;;;19.01;70.30
42105;BME280;68365;51.472;5.712;2023-05-29T08:57:12;102271.41;;;18.87;69.91
42105;BME280;68365;51.472;5.712;2023-05-29T08:59:42;102266.34;;;18.78;69.36
42105;BME280;68365;51.472;5.712;2023-05-29T09:02:13;102276.19;;;18.84;69.20
42105;BME280;68365;51.472;5.712;2023-05-29T09:04:43;102277.63;;;18.86;69.13
42105;BME280;68365;51.472;5.712;2023-05-29T09:07:12;102277.31;;;18.89;70.09
42105;BME280;68365;51.472;5.712;2023-05-29T09:09:38;102283.22;;;18.92;69.33
42105;BME280;68365;51.472;5.712;2023-05-29T09:12:04;102287.53;;;18.84;69.30
42105;BME280;68365;51.472;5.712;2023-05-29T09:14:38;102284.91;;;18.76;67.26
42105;BME280;68365;51.472;5.712;2023-05-29T09:17:05;102281.81;;;18.81;67.23
42105;BME280;68365;51.472;5.712;2023-05-29T09:19:33;102278.81;;;18.84;67.99
42105;BME280;68365;51.472;5.712;2023-05-29T09:22:25;102287.09;;;18.81;68.16
42105;BME280;68365;51.472;5.712;2023-05-29T09:24:51;102279.94;;;18.89;68.15
42105;BME280;68365;51.472;5.712;2023-05-29T09:27:17;102276.66;;;18.87;67.98
42105;BME280;68365;51.472;5.712;2023-05-29T09:29:45;102283.38;;;18.90;68.49
42105;BME280;68365;51.472;5.712;2023-05-29T09:32:20;102288.47;;;18.92;67.79
42105;BME280;68365;51.472;5.712;2023-05-29T09:34:47;102273.56;;;18.84;67.88
42105;BME280;68365;51.472;5.712;2023-05-29T09:37:14;102280.91;;;18.88;67.93
42105;BME280;68365;51.472;5.712;2023-05-29T09:39:50;102280.75;;;18.90;67.78
42105;BME280;68365;51.472;5.712;2023-05-29T09:42:21;102275.16;;;18.93;68.68
42105;BME280;68365;51.472;5.712;2023-05-29T09:44:51;102280.03;;;18.96;67.87
42105;BME280;68365;51.472;5.712;2023-05-29T09:47:18;102278.59;;;18.94;66.77
42105;BME280;68365;51.472;5.712;2023-05-29T09:49:45;102285.13;;;18.98;66.74
42105;BME280;68365;51.472;5.712;2023-05-29T09:52:13;102274.44;;;18.99;66.61
42105;BME280;68365;51.472;5.712;2023-05-29T09:54:43;102272.78;;;18.98;67.13
42105;BME280;68365;51.472;5.712;2023-05-29T09:57:16;102276.69;;;19.02;67.19
42105;BME280;68365;51.472;5.712;2023-05-29T09:59:46;102283.72;;;19.10;68.19
42105;BME280;68365;51.472;5.712;2023-05-29T10:02:17;102275.34;;;19.06;67.51
42105;BME280;68365;51.472;5.712;2023-05-29T10:04:43;102275.72;;;19.03;67.08
42105;BME280;68365;51.472;5.712;2023-05-29T10:07:28;102269.63;;;19.03;68.10
42105;BME280;68365;51.472;5.712;2023-05-29T10:10:04;102266.66;;;19.06;68.07
42105;BME280;68365;51.472;5.712;2023-05-29T10:12:32;102271.91;;;19.06;67.81
42105;BME280;68365;51.472;5.712;2023-05-29T10:15:02;102272.88;;;19.05;68.00
42105;BME280;68365;51.472;5.712;2023-05-29T10:17:35;102267.53;;;18.98;67.34
42105;BME280;68365;51.472;5.712;2023-05-29T10:20:05;102270.69;;;18.94;66.89
42105;BME280;68365;51.472;5.712;2023-05-29T10:22:40;102272.78;;;18.98;67.71
42105;BME280;68365;51.472;5.712;2023-05-29T10:25:09;102269.19;;;18.99;66.98
42105;BME280;68365;51.472;5.712;2023-05-29T10:27:36;102271.50;;;18.94;66.96
42105;BME280;68365;51.472;5.712;2023-05-29T10:30:37;102264.72;;;19.00;66.91
42105;BME280;68365;51.472;5.712;2023-05-29T10:33:23;102257.94;;;19.05;67.28
42105;BME280;68365;51.472;5.712;2023-05-29T10:36:16;102257.94;;;19.05;67.50
42105;BME280;68365;51.472;5.712;2023-05-29T10:38:48;102257.09;;;19.05;66.64
42105;BME280;68365;51.472;5.712;2023-05-29T10:44:00;102264.47;;;19.09;67.77
42105;BME280;68365;51.472;5.712;2023-05-29T10:49:21;102255.66;;;19.17;68.13
42105;BME280;68365;51.472;5.712;2023-05-29T10:51:48;102262.75;;;19.17;67.18
42105;BME280;68365;51.472;5.712;2023-05-29T10:54:14;102249.59;;;19.17;68.13
42105;BME280;68365;51.472;5.712;2023-05-29T10:56:51;102262.41;;;19.20;68.16
42105;BME280;68365;51.472;5.712;2023-05-29T10:59:18;102252.59;;;19.14;67.12
42105;BME280;68365;51.472;5.712;2023-05-29T11:01:44;102256.31;;;19.19;67.29
42105;BME280;68365;51.472;5.712;2023-05-29T11:06:50;102247.69;;;19.25;67.51
42105;BME280;68365;51.472;5.712;2023-05-29T11:09:37;102246.97;;;19.32;68.57
42105;BME280;68365;51.472;5.712;2023-05-29T11:12:23;102246.97;;;19.32;67.80
42105;BME280;68365;51.472;5.712;2023-05-29T11:15:08;102246.00;;;19.33;67.09
42105;BME280;68365;51.472;5.712;2023-05-29T11:25:15;102232.19;;;19.30;66.85
42105;BME280;68365;51.472;5.712;2023-05-29T11:27:44;102232.84;;;19.33;67.00
42105;BME280;68365;51.472;5.712;2023-05-29T11:30:11;102233.81;;;19.32;67.56
42105;BME280;68365;51.472;5.712;2023-05-29T11:32:40;102232.19;;;19.30;67.01
42105;BME280;68365;51.472;5.712;2023-05-29T11:35:10;102228.75;;;19.30;67.14
42105;BME280;68365;51.472;5.712;2023-05-29T11:37:37;102237.28;;;19.32;65.69
42105;BME280;68365;51.472;5.712;2023-05-29T11:40:07;102231.00;;;19.33;66.23
42105;BME280;68365;51.472;5.712;2023-05-29T11:42:42;102237.72;;;19.36;66.90
42105;BME280;68365;51.472;5.712;2023-05-29T11:45:16;102242.00;;;19.37;66.52
42105;BME280;68365;51.472;5.712;2023-05-29T11:47:59;102238.34;;;19.38;66.14
42105;BME280;68365;51.472;5.712;2023-05-29T11:50:28;102233.94;;;19.38;65.56
42105;BME280;68365;51.472;5.712;2023-05-29T11:52:56;102235.09;;;19.36;65.50
42105;BME280;68365;51.472;5.712;2023-05-29T11:55:24;102236.75;;;19.37;65.50
42105;BME280;68365;51.472;5.712;2023-05-29T11:57:55;102227.41;;;19.34;65.18
42105;BME280;68365;51.472;5.712;2023-05-29T12:00:21;102232.91;;;19.39;65.53
42105;BME280;68365;51.472;5.712;2023-05-29T12:02:48;102228.28;;;19.41;64.97
42105;BME280;68365;51.472;5.712;2023-05-29T12:05:16;102224.47;;;19.44;64.86
42105;BME280;68365;51.472;5.712;2023-05-29T12:07:52;102222.47;;;19.46;65.55
42105;BME280;68365;51.472;5.712;2023-05-29T12:10:20;102230.38;;;19.46;64.60
42105;BME280;68365;51.472;5.712;2023-05-29T12:13:03;102230.19;;;19.47;65.08
42105;BME280;68365;51.472;5.712;2023-05-29T12:15:29;102227.72;;;19.46;65.55
42105;BME280;68365;51.472;5.712;2023-05-29T12:17:55;102226.94;;;19.45;64.74
42105;BME280;68365;51.472;5.712;2023-05-29T12:20:25;102232.03;;;19.47;64.90
42105;BME280;68365;51.472;5.712;2023-05-29T12:23:01;102232.03;;;19.47;65.07
42105;BME280;68365;51.472;5.712;2023-05-29T12:25:27;102225.09;;;19.46;63.97
42105;BME280;68365;51.472;5.712;2023-05-29T12:27:56;102235.63;;;19.46;63.88
42105;BME280;68365;51.472;5.712;2023-05-29T12:30:23;102225.94;;;19.46;63.83
42105;BME280;68365;51.472;5.712;2023-05-29T12:32:53;102227.38;;;19.49;64.17
42105;BME280;68365;51.472;5.712;2023-05-29T12:35:22;102223.75;;;19.50;64.14
42105;BME280;68365;51.472;5.712;2023-05-29T12:38:07;102226.19;;;19.52;64.60
42105;BME280;68365;51.472;5.712;2023-05-29T12:40:36;102228.03;;;19.51;64.37
42105;BME280;68365;51.472;5.712;2023-05-29T12:43:09;102220.94;;;19.52;64.23
42105;BME280;68365;51.472;5.712;2023-05-29T12:45:35;102221.09;;;19.50;64.42
42105;BME280;68365;51.472;5.712;2023-05-29T12:48:04;102227.38;;;19.49;63.79
42105;BME280;68365;51.472;5.712;2023-05-29T12:50:32;102232.28;;;19.52;63.88
42105;BME280;68365;51.472;5.712;2023-05-29T12:55:35;102226.03;;;19.53;63.74
42105;BME280;68365;51.472;5.712;2023-05-29T12:58:09;102229.63;;;19.52;63.60
42105;BME280;68365;51.472;5.712;2023-05-29T13:00:37;102218.13;;;19.53;63.64
42105;BME280;68365;51.472;5.712;2023-05-29T13:03:04;102220.59;;;19.55;64.54
42105;BME280;68365;51.472;5.712;2023-05-29T13:05:31;102220.59;;;19.55;64.17
42105;BME280;68365;51.472;5.712;2023-05-29T13:07:58;102220.75;;;19.53;63.96
42105;BME280;68365;51.472;5.712;2023-05-29T13:10:25;102217.75;;;19.56;64.21
42105;BME280;68365;51.472;5.712;2023-05-29T13:12:54;102224.84;;;19.56;63.98
42105;BME280;68365;51.472;5.712;2023-05-29T13:15:24;102222.03;;;19.57;64.01
42105;BME280;68365;51.472;5.712;2023-05-29T13:17:52;102218.19;;;19.60;66.71